Time;durP1;ratioP1;P1;durP2;ratioP2;P2;SDS_P1;SDS_P2;PMS_P1;PMS_P2;Temp;Humidity;BMP_temperature;BMP_pressure;BME280_temperature;BME280_humidity;BME280_pressure;Samples;Min_cycle;Max_cycle;Signal;HPM_P1;HPM_P2
2023/03/30 00:01:09;;;;;;;7.38;1.70;;;;;;;;;;5063679;28;20040;-69
2023/03/30 00:03:37;;;;;;;14.25;1.77;;;;;;;;;;5057461;28;20374;-69
2023/03/30 00:06:03;;;;;;;7.18;1.98;;;;;;;;;;5056375;28;20617;-69
2023/03/30 00:08:29;;;;;;;9.30;1.60;;;;;;;;;;5059343;28;20031;-70
2023/03/30 00:11:04;;;;;;;8.40;2.08;;;;;;;;;;5059169;28;20012;-69
2023/03/30 00:13:30;;;;;;;5.95;1.58;;;;;;;;;;5059888;28;20027;-69
2023/03/30 00:15:55;;;;;;;11.25;1.60;;;;;;;;;;5055277;28;20017;-69
2023/03/30 00:18:21;;;;;;;2.90;1.48;;;;;;;;;;5059828;28;20444;-70
2023/03/30 00:20:50;;;;;;;3.58;1.50;;;;;;;;;;5061198;28;20405;-70
2023/03/30 00:23:15;;;;;;;7.82;1.60;;;;;;;;;;5065140;28;20111;-70
2023/03/30 00:25:41;;;;;;;8.40;1.33;;;;;;;;;;5060717;28;20444;-70
2023/03/30 00:28:06;;;;;;;4.63;1.50;;;;;;;;;;5067743;28;20437;-70
2023/03/30 00:30:31;;;;;;;10.68;1.70;;;;;;;;;;5053923;28;21736;-70
2023/03/30 00:32:57;;;;;;;5.30;1.40;;;;;;;;;;5062231;28;20021;-69
2023/03/30 00:35:22;;;;;;;12.00;2.57;;;;;;;;;;5064079;28;20070;-70
2023/03/30 00:37:48;;;;;;;13.00;2.00;;;;;;;;;;5061580;28;20651;-70
2023/03/30 00:40:18;;;;;;;3.40;1.05;;;;;;;;;;5062434;28;20270;-70
2023/03/30 00:42:43;;;;;;;7.93;1.50;;;;;;;;;;5064886;28;20540;-70
2023/03/30 00:45:19;;;;;;;16.25;2.15;;;;;;;;;;5060880;28;20028;-69
2023/03/30 00:47:46;;;;;;;6.30;1.58;;;;;;;;;;5060089;28;20021;-70
2023/03/30 00:50:12;;;;;;;11.98;2.00;;;;;;;;;;5056683;28;20132;-69
2023/03/30 00:52:38;;;;;;;8.63;1.08;;;;;;;;;;5062396;28;20554;-69
2023/03/30 00:55:06;;;;;;;8.73;1.77;;;;;;;;;;5058864;28;20579;-69
2023/03/30 00:57:33;;;;;;;4.78;1.67;;;;;;;;;;5067856;28;20501;-69
2023/03/30 00:59:58;;;;;;;4.43;1.75;;;;;;;;;;5060311;28;20063;-69
2023/03/30 01:02:24;;;;;;;4.68;1.15;;;;;;;;;;5061778;28;20465;-70
2023/03/30 01:04:51;;;;;;;6.28;1.20;;;;;;;;;;5059814;28;20096;-69
2023/03/30 01:07:17;;;;;;;3.88;1.30;;;;;;;;;;5059153;28;20029;-69
2023/03/30 01:09:43;;;;;;;7.20;1.48;;;;;;;;;;5062907;28;20036;-70
2023/03/30 01:12:09;;;;;;;11.07;1.90;;;;;;;;;;5058656;28;20386;-69
2023/03/30 01:14:34;;;;;;;10.45;1.80;;;;;;;;;;5053625;28;20013;-69
2023/03/30 01:17:02;;;;;;;8.25;1.30;;;;;;;;;;5056086;28;20020;-69
2023/03/30 01:19:30;;;;;;;5.28;1.65;;;;;;;;;;5062742;28;20106;-69
2023/03/30 01:22:03;;;;;;;10.77;2.05;;;;;;;;;;5051493;28;20025;-69
2023/03/30 01:24:47;;;;;;;4.60;1.38;;;;;;;;;;5057615;28;20012;-69
2023/03/30 01:27:31;;;;;;;4.40;0.73;;;;;;;;;;5057523;28;20009;-70
2023/03/30 01:30:23;;;;;;;5.50;1.55;;;;;;;;;;5054720;28;20512;-69
2023/03/30 01:33:03;;;;;;;9.43;1.67;;;;;;;;;;5052705;28;20039;-70
2023/03/30 01:35:41;;;;;;;11.63;1.50;;;;;;;;;;5053007;28;20052;-70
2023/03/30 01:38:15;;;;;;;6.18;1.23;;;;;;;;;;5055458;28;20021;-69
2023/03/30 01:40:54;;;;;;;8.98;1.27;;;;;;;;;;5055250;28;20552;-69
2023/03/30 01:43:27;;;;;;;4.72;1.23;;;;;;;;;;5060152;28;20027;-70
2023/03/30 01:45:55;;;;;;;1.98;0.73;;;;;;;;;;5058686;28;20028;-69
2023/03/30 01:48:33;;;;;;;8.90;2.67;;;;;;;;;;5070208;28;20393;-69
2023/03/30 01:51:01;;;;;;;6.28;1.55;;;;;;;;;;5051663;28;20366;-69
2023/03/30 01:53:30;;;;;;;10.05;1.85;;;;;;;;;;5059000;28;20537;-69
2023/03/30 01:56:01;;;;;;;13.68;2.78;;;;;;;;;;5060462;28;20041;-69
2023/03/30 01:58:42;;;;;;;6.95;1.40;;;;;;;;;;5058956;28;20027;-70
2023/03/30 02:01:09;;;;;;;7.65;1.83;;;;;;;;;;5057773;28;20021;-69
2023/03/30 02:03:37;;;;;;;5.43;1.05;;;;;;;;;;5059355;28;20382;-70
2023/03/30 02:06:08;;;;;;;7.07;1.52;;;;;;;;;;5054717;28;20032;-70
2023/03/30 02:08:34;;;;;;;8.48;1.52;;;;;;;;;;5053061;28;20024;-69
2023/03/30 02:11:00;;;;;;;4.78;0.93;;;;;;;;;;5063194;28;20381;-70
2023/03/30 02:13:26;;;;;;;5.43;1.95;;;;;;;;;;5057096;28;20017;-69
2023/03/30 02:16:14;;;;;;;5.25;2.28;;;;;;;;;;5052374;28;20017;-69
2023/03/30 02:18:39;;;;;;;8.45;2.00;;;;;;;;;;5063335;28;20037;-70
2023/03/30 02:21:05;;;;;;;22.70;1.80;;;;;;;;;;5055486;28;20032;-70
2023/03/30 02:23:33;;;;;;;4.50;1.50;;;;;;;;;;5058233;28;20090;-70
2023/03/30 02:25:59;;;;;;;9.13;2.08;;;;;;;;;;5056332;28;20101;-69
2023/03/30 02:28:24;;;;;;;2.47;0.80;;;;;;;;;;5056144;28;20067;-69
2023/03/30 02:30:50;;;;;;;8.27;1.83;;;;;;;;;;5061333;28;20042;-69
2023/03/30 02:33:23;;;;;;;13.55;2.17;;;;;;;;;;5056909;28;20266;-70
2023/03/30 02:35:51;;;;;;;4.80;1.58;;;;;;;;;;5060196;28;20021;-70
2023/03/30 02:38:20;;;;;;;4.80;1.45;;;;;;;;;;5067100;28;20017;-70
2023/03/30 02:40:45;;;;;;;8.70;2.13;;;;;;;;;;5063173;28;20024;-70
2023/03/30 02:43:48;;;;;;;11.27;1.70;;;;;;;;;;5063292;28;20024;-69
2023/03/30 02:46:17;;;;;;;7.75;2.00;;;;;;;;;;5040033;28;20040;-69
2023/03/30 02:48:42;;;;;;;3.45;1.77;;;;;;;;;;5044291;28;20116;-69
2023/03/30 02:51:10;;;;;;;1.40;0.60;;;;;;;;;;5052294;28;20104;-70
2023/03/30 02:53:38;;;;;;;7.43;2.53;;;;;;;;;;5065909;28;20716;-69
2023/03/30 02:56:11;;;;;;;13.43;2.25;;;;;;;;;;5063300;28;20021;-70
2023/03/30 02:58:41;;;;;;;6.60;2.08;;;;;;;;;;5060245;28;20032;-69
2023/03/30 03:01:13;;;;;;;11.90;2.55;;;;;;;;;;5063359;28;20024;-69
2023/03/30 03:03:42;;;;;;;13.50;2.28;;;;;;;;;;5064557;28;20055;-69
2023/03/30 03:06:08;;;;;;;8.93;1.83;;;;;;;;;;5064322;28;20025;-69
2023/03/30 03:08:38;;;;;;;14.02;2.30;;;;;;;;;;5058070;28;20032;-70
2023/03/30 03:11:03;;;;;;;;;;;;;;;;;;5067194;28;20012;-70
2023/03/30 03:13:28;;;;;;;9.20;2.10;;;;;;;;;;5065751;28;20368;-70
2023/03/30 03:15:56;;;;;;;8.43;1.70;;;;;;;;;;5060764;28;20028;-69
2023/03/30 03:18:22;;;;;;;11.43;1.67;;;;;;;;;;5061297;28;20358;-70
2023/03/30 03:20:48;;;;;;;8.93;1.20;;;;;;;;;;5062849;28;20151;-69
2023/03/30 03:23:13;;;;;;;12.10;2.75;;;;;;;;;;5067592;28;20029;-70
2023/03/30 03:25:38;;;;;;;20.57;4.33;;;;;;;;;;5066605;28;20024;-69
2023/03/30 03:28:04;;;;;;;14.03;1.90;;;;;;;;;;5064521;28;20775;-69
2023/03/30 03:30:29;;;;;;;9.85;2.20;;;;;;;;;;5066512;28;20268;-69
2023/03/30 03:32:55;;;;;;;6.72;1.90;;;;;;;;;;5063835;28;20458;-69
2023/03/30 03:35:21;;;;;;;11.75;1.90;;;;;;;;;;5068623;28;20021;-69
2023/03/30 03:37:46;;;;;;;8.03;2.03;;;;;;;;;;5065400;28;20504;-69
2023/03/30 03:40:11;;;;;;;12.87;3.83;;;;;;;;;;5063067;28;20352;-69
2023/03/30 03:42:36;;;;;;;6.90;1.85;;;;;;;;;;5062663;28;20484;-69
2023/03/30 03:45:02;;;;;;;8.13;1.52;;;;;;;;;;5061784;28;20025;-69
2023/03/30 03:47:27;;;;;;;12.43;1.80;;;;;;;;;;5067068;28;20025;-69
2023/03/30 03:49:52;;;;;;;13.00;2.28;;;;;;;;;;5062374;28;20035;-69
2023/03/30 03:52:18;;;;;;;9.03;2.17;;;;;;;;;;5068250;28;20393;-69
2023/03/30 03:54:43;;;;;;;9.40;2.13;;;;;;;;;;5058980;28;20314;-70
2023/03/30 03:57:08;;;;;;;7.30;2.00;;;;;;;;;;5061518;28;20083;-69
2023/03/30 03:59:33;;;;;;;15.20;2.43;;;;;;;;;;5061657;28;20313;-69
2023/03/30 04:01:58;;;;;;;7.32;1.63;;;;;;;;;;5061696;28;20029;-70
2023/03/30 04:04:24;;;;;;;9.82;2.05;;;;;;;;;;5061943;28;20017;-69
2023/03/30 04:06:50;;;;;;;10.77;3.15;;;;;;;;;;5063261;28;20482;-69
2023/03/30 04:09:15;;;;;;;13.05;2.35;;;;;;;;;;5064732;28;20061;-69
2023/03/30 04:11:41;;;;;;;14.43;2.65;;;;;;;;;;5061460;28;20485;-69
2023/03/30 04:14:06;;;;;;;10.90;2.00;;;;;;;;;;5059101;28;20025;-70
2023/03/30 04:16:31;;;;;;;9.53;2.37;;;;;;;;;;5062985;28;20266;-69
2023/03/30 04:18:56;;;;;;;4.65;1.48;;;;;;;;;;5061652;28;20275;-70
2023/03/30 04:21:22;;;;;;;12.25;2.45;;;;;;;;;;5064878;28;20023;-69
2023/03/30 04:23:47;;;;;;;8.82;2.78;;;;;;;;;;5061596;28;20043;-69
2023/03/30 04:26:14;;;;;;;13.88;2.15;;;;;;;;;;5056755;28;20024;-69
2023/03/30 04:28:39;;;;;;;11.00;2.45;;;;;;;;;;5063930;28;20028;-69
2023/03/30 04:31:09;;;;;;;11.00;2.30;;;;;;;;;;5058724;28;20024;-69
2023/03/30 04:33:36;;;;;;;6.60;1.95;;;;;;;;;;5061288;28;20800;-70
2023/03/30 04:36:02;;;;;;;5.85;2.17;;;;;;;;;;5068478;28;20021;-70
2023/03/30 04:38:28;;;;;;;8.75;1.98;;;;;;;;;;5062481;28;20021;-69
2023/03/30 04:40:54;;;;;;;7.22;2.08;;;;;;;;;;5057508;28;20039;-69
2023/03/30 04:43:20;;;;;;;10.63;2.40;;;;;;;;;;5055727;28;20420;-69
2023/03/30 04:45:50;;;;;;;13.93;1.98;;;;;;;;;;5061846;28;20473;-69
2023/03/30 04:48:15;;;;;;;6.88;1.85;;;;;;;;;;5060443;28;20083;-69
2023/03/30 04:50:42;;;;;;;12.93;3.38;;;;;;;;;;5061855;28;20089;-69
2023/03/30 04:53:07;;;;;;;23.55;2.70;;;;;;;;;;5061854;28;20405;-69
2023/03/30 04:55:32;;;;;;;9.65;2.53;;;;;;;;;;5063644;28;20043;-69
2023/03/30 04:57:58;;;;;;;16.27;3.13;;;;;;;;;;5059308;28;20134;-69
2023/03/30 05:00:23;;;;;;;13.63;2.03;;;;;;;;;;5058465;28;20282;-69
2023/03/30 05:02:48;;;;;;;11.33;3.00;;;;;;;;;;5059318;28;20283;-70
2023/03/30 05:05:13;;;;;;;7.20;2.00;;;;;;;;;;5060654;28;20314;-69
2023/03/30 05:07:38;;;;;;;13.48;2.60;;;;;;;;;;5062984;28;20572;-69
2023/03/30 05:10:04;;;;;;;11.23;2.67;;;;;;;;;;5058090;28;20115;-69
2023/03/30 05:12:29;;;;;;;6.28;2.47;;;;;;;;;;5055897;28;20271;-69
2023/03/30 05:14:54;;;;;;;18.53;3.80;;;;;;;;;;5055887;28;20166;-69
2023/03/30 05:17:19;;;;;;;12.13;3.10;;;;;;;;;;5055255;28;20271;-69
2023/03/30 05:19:45;;;;;;;9.82;2.92;;;;;;;;;;5059923;28;20640;-69
2023/03/30 05:22:10;;;;;;;16.38;2.45;;;;;;;;;;5052438;28;20036;-70
2023/03/30 05:24:35;;;;;;;13.70;2.80;;;;;;;;;;5060703;28;20028;-70
2023/03/30 05:27:01;;;;;;;8.83;3.43;;;;;;;;;;5051832;28;20020;-69
2023/03/30 05:29:27;;;;;;;24.95;4.47;;;;;;;;;;5055232;28;20310;-69
2023/03/30 05:31:52;;;;;;;8.05;2.60;;;;;;;;;;5054680;28;20027;-69
2023/03/30 05:34:17;;;;;;;15.60;4.53;;;;;;;;;;5053489;28;20021;-70
2023/03/30 05:36:42;;;;;;;16.15;3.13;;;;;;;;;;5059237;28;20278;-69
2023/03/30 05:39:08;;;;;;;16.05;3.05;;;;;;;;;;5051077;28;20039;-69
2023/03/30 05:41:33;;;;;;;16.13;3.75;;;;;;;;;;5054370;28;20635;-69
2023/03/30 05:43:58;;;;;;;24.63;3.55;;;;;;;;;;5060922;28;20396;-69
2023/03/30 05:46:23;;;;;;;19.10;3.47;;;;;;;;;;5056567;28;20013;-70
2023/03/30 05:48:49;;;;;;;16.70;3.13;;;;;;;;;;5062555;28;20032;-69
2023/03/30 05:51:14;;;;;;;9.13;3.33;;;;;;;;;;5058092;28;20259;-70
2023/03/30 05:53:39;;;;;;;13.60;3.72;;;;;;;;;;5057301;28;20079;-69
2023/03/30 05:56:06;;;;;;;30.60;4.57;;;;;;;;;;5059992;28;20382;-70
2023/03/30 05:58:31;;;;;;;16.67;4.00;;;;;;;;;;5054936;28;20028;-69
2023/03/30 06:00:57;;;;;;;16.77;3.88;;;;;;;;;;5048423;28;20524;-69
2023/03/30 06:03:22;;;;;;;12.98;4.07;;;;;;;;;;5054045;28;20070;-70
2023/03/30 06:05:47;;;;;;;12.68;5.10;;;;;;;;;;5056078;28;20021;-69
2023/03/30 06:08:13;;;;;;;9.07;3.25;;;;;;;;;;5061681;28;20032;-70
2023/03/30 06:10:39;;;;;;;13.60;2.95;;;;;;;;;;5051230;28;20019;-69
2023/03/30 06:13:04;;;;;;;10.75;3.13;;;;;;;;;;5059940;28;20029;-69
2023/03/30 06:15:29;;;;;;;21.85;2.95;;;;;;;;;;5054604;28;20074;-70
2023/03/30 06:17:55;;;;;;;16.10;2.15;;;;;;;;;;5054492;28;20028;-69
2023/03/30 06:20:20;;;;;;;11.32;2.10;;;;;;;;;;5061791;28;20025;-70
2023/03/30 06:22:48;;;;;;;12.82;2.60;;;;;;;;;;5053277;28;20024;-70
2023/03/30 06:25:14;;;;;;;9.18;2.75;;;;;;;;;;5057653;28;20416;-69
2023/03/30 06:27:39;;;;;;;9.32;1.60;;;;;;;;;;5056894;28;20074;-69
2023/03/30 06:30:05;;;;;;;10.95;2.65;;;;;;;;;;5065836;28;20017;-69
2023/03/30 06:32:30;;;;;;;10.73;2.85;;;;;;;;;;5056271;28;20042;-70
2023/03/30 06:34:55;;;;;;;9.52;2.08;;;;;;;;;;5057173;28;20036;-69
2023/03/30 06:37:21;;;;;;;6.10;1.92;;;;;;;;;;5060216;28;20124;-69
2023/03/30 06:39:46;;;;;;;21.33;2.80;;;;;;;;;;5058865;28;20012;-69
2023/03/30 06:42:11;;;;;;;7.88;2.95;;;;;;;;;;5063123;28;20473;-69
2023/03/30 06:44:36;;;;;;;4.78;2.40;;;;;;;;;;5061980;28;20381;-69
2023/03/30 06:47:04;;;;;;;11.85;2.28;;;;;;;;;;5057436;28;20391;-70
2023/03/30 06:49:29;;;;;;;8.90;2.95;;;;;;;;;;5060953;28;20017;-69
2023/03/30 06:51:55;;;;;;;10.00;2.40;;;;;;;;;;5058377;28;20405;-69
2023/03/30 06:54:20;;;;;;;6.30;1.52;;;;;;;;;;5048263;28;20101;-69
2023/03/30 06:56:46;;;;;;;13.23;2.95;;;;;;;;;;5057721;28;20047;-70
2023/03/30 06:59:12;;;;;;;11.88;2.70;;;;;;;;;;5057707;28;20097;-69
2023/03/30 07:01:37;;;;;;;11.50;2.28;;;;;;;;;;5055981;28;20026;-69
2023/03/30 07:04:03;;;;;;;15.85;2.40;;;;;;;;;;5061006;28;20115;-69
2023/03/30 07:06:28;;;;;;;16.98;2.65;;;;;;;;;;5057090;28;20024;-69
2023/03/30 07:08:53;;;;;;;12.88;2.53;;;;;;;;;;5053864;28;20470;-70
2023/03/30 07:11:19;;;;;;;12.80;3.13;;;;;;;;;;5055568;28;20033;-70
2023/03/30 07:13:44;;;;;;;8.50;2.17;;;;;;;;;;5061504;28;20017;-70
2023/03/30 07:16:09;;;;;;;9.40;4.37;;;;;;;;;;5063946;28;20324;-69
2023/03/30 07:18:34;;;;;;;7.68;2.00;;;;;;;;;;5058567;28;20283;-69
2023/03/30 07:21:00;;;;;;;8.40;1.92;;;;;;;;;;5058248;28;20067;-70
2023/03/30 07:23:25;;;;;;;4.07;1.65;;;;;;;;;;5056848;28;20052;-69
2023/03/30 07:25:51;;;;;;;13.35;2.47;;;;;;;;;;5061306;28;20021;-69
2023/03/30 07:28:17;;;;;;;12.00;1.75;;;;;;;;;;5069626;28;20524;-70
2023/03/30 07:30:42;;;;;;;10.90;2.00;;;;;;;;;;5069455;28;20017;-69
2023/03/30 07:33:07;;;;;;;7.82;1.48;;;;;;;;;;5072020;28;20025;-70
2023/03/30 07:35:33;;;;;;;6.70;2.28;;;;;;;;;;5069536;28;20028;-69
2023/03/30 07:37:58;;;;;;;16.63;2.33;;;;;;;;;;5068865;28;20061;-70
2023/03/30 07:40:23;;;;;;;16.37;3.30;;;;;;;;;;5072943;28;20025;-69
2023/03/30 07:42:49;;;;;;;13.73;3.37;;;;;;;;;;5067046;28;20565;-69
2023/03/30 07:45:14;;;;;;;20.63;2.50;;;;;;;;;;5055976;28;20039;-70
2023/03/30 07:47:40;;;;;;;10.83;2.27;;;;;;;;;;5058519;28;20025;-69
2023/03/30 07:50:05;;;;;;;15.38;2.83;;;;;;;;;;5055553;28;20293;-69
2023/03/30 07:52:31;;;;;;;12.38;2.65;;;;;;;;;;5061842;28;20028;-70
2023/03/30 07:54:56;;;;;;;7.68;2.17;;;;;;;;;;5067641;28;20017;-70
2023/03/30 07:57:21;;;;;;;3.55;1.42;;;;;;;;;;5060128;28;20020;-70
2023/03/30 07:59:46;;;;;;;4.47;1.83;;;;;;;;;;5065280;28;20021;-69
2023/03/30 08:02:13;;;;;;;6.82;1.50;;;;;;;;;;5062397;28;20028;-69
2023/03/30 08:04:38;;;;;;;13.95;1.65;;;;;;;;;;5059897;28;20096;-69
2023/03/30 08:07:03;;;;;;;13.18;2.20;;;;;;;;;;5061128;28;20017;-69
2023/03/30 08:09:29;;;;;;;6.28;2.03;;;;;;;;;;5069370;28;20531;-70
2023/03/30 08:11:54;;;;;;;11.05;2.40;;;;;;;;;;5069201;28;20012;-70
2023/03/30 08:14:20;;;;;;;8.98;2.00;;;;;;;;;;5062973;28;20115;-69
2023/03/30 08:16:45;;;;;;;5.07;1.80;;;;;;;;;;5060616;28;20032;-69
2023/03/30 08:19:10;;;;;;;7.32;1.50;;;;;;;;;;5059295;28;21986;-69
2023/03/30 08:21:36;;;;;;;4.70;1.40;;;;;;;;;;5062270;28;20074;-69
2023/03/30 08:24:01;;;;;;;8.23;1.33;;;;;;;;;;5067131;28;20688;-69
2023/03/30 08:26:27;;;;;;;7.57;1.73;;;;;;;;;;5064678;28;20051;-69
2023/03/30 08:28:52;;;;;;;7.25;1.35;;;;;;;;;;5066761;28;20093;-70
2023/03/30 08:31:17;;;;;;;3.22;1.05;;;;;;;;;;5060084;28;20307;-70
2023/03/30 08:33:45;;;;;;;14.07;2.17;;;;;;;;;;5062346;28;20024;-70
2023/03/30 08:36:14;;;;;;;1.55;0.45;;;;;;;;;;5060947;28;20802;-70
2023/03/30 08:38:39;;;;;;;10.30;1.75;;;;;;;;;;5064384;28;20115;-69
2023/03/30 08:41:23;;;;;;;6.93;1.23;;;;;;;;;;5068667;28;20450;-70
2023/03/30 08:43:48;;;;;;;9.13;1.88;;;;;;;;;;5060833;28;20085;-70
2023/03/30 08:46:14;;;;;;;15.35;2.95;;;;;;;;;;5060085;28;20386;-69
2023/03/30 08:48:41;;;;;;;8.65;2.13;;;;;;;;;;5061204;28;20029;-69
2023/03/30 08:51:16;;;;;;;17.15;1.90;;;;;;;;;;5062855;28;20017;-69
2023/03/30 08:53:41;;;;;;;9.27;2.30;;;;;;;;;;5065750;28;20478;-70
2023/03/30 08:56:09;;;;;;;11.70;2.30;;;;;;;;;;5068351;28;20056;-69
2023/03/30 08:58:54;;;;;;;11.55;1.80;;;;;;;;;;5056999;28;20271;-69
2023/03/30 09:01:23;;;;;;;9.77;1.90;;;;;;;;;;5058733;28;20473;-69
2023/03/30 09:03:49;;;;;;;9.50;1.20;;;;;;;;;;5061224;28;20025;-69
2023/03/30 09:06:21;;;;;;;10.68;3.80;;;;;;;;;;5065240;28;20024;-70
2023/03/30 09:08:47;;;;;;;11.57;1.95;;;;;;;;;;5068915;28;20111;-69
2023/03/30 09:11:16;;;;;;;11.43;1.70;;;;;;;;;;5063937;28;20119;-69
2023/03/30 09:13:44;;;;;;;11.02;2.75;;;;;;;;;;5061348;28;20116;-69
2023/03/30 09:16:15;;;;;;;16.60;3.35;;;;;;;;;;5058175;28;20031;-69
2023/03/30 09:18:41;;;;;;;14.07;3.83;;;;;;;;;;5062490;28;20027;-69
2023/03/30 09:21:11;;;;;;;16.92;3.95;;;;;;;;;;5057884;28;20087;-70
2023/03/30 09:23:38;;;;;;;13.57;3.30;;;;;;;;;;5056331;28;20047;-70
2023/03/30 09:26:17;;;;;;;18.02;3.72;;;;;;;;;;5056010;28;20036;-69
2023/03/30 09:28:43;;;;;;;19.77;4.03;;;;;;;;;;5054115;28;20052;-69
2023/03/30 09:31:14;;;;;;;9.80;1.15;;;;;;;;;;5056702;28;20075;-69
2023/03/30 09:33:44;;;;;;;17.20;2.88;;;;;;;;;;5056469;28;20475;-69
2023/03/30 09:36:10;;;;;;;13.45;2.72;;;;;;;;;;5062911;28;20021;-70
2023/03/30 09:38:40;;;;;;;8.40;1.60;;;;;;;;;;5055226;28;20421;-70
2023/03/30 09:41:28;;;;;;;12.82;3.20;;;;;;;;;;5056685;28;20568;-70
2023/03/30 09:43:55;;;;;;;3.50;0.90;;;;;;;;;;5060431;28;20029;-70
2023/03/30 09:46:20;;;;;;;10.27;1.65;;;;;;;;;;5055941;28;20359;-70
2023/03/30 09:48:46;;;;;;;11.68;2.92;;;;;;;;;;5059711;28;20033;-69
2023/03/30 09:51:14;;;;;;;9.73;1.60;;;;;;;;;;5062708;28;20044;-69
2023/03/30 09:53:41;;;;;;;10.35;1.75;;;;;;;;;;5063190;28;20070;-68
2023/03/30 09:56:09;;;;;;;15.90;2.95;;;;;;;;;;5059936;28;20037;-68
2023/03/30 09:58:35;;;;;;;16.83;2.88;;;;;;;;;;5061450;28;20684;-68
2023/03/30 10:01:05;;;;;;;16.98;2.38;;;;;;;;;;5060824;28;20135;-69
2023/03/30 10:03:31;;;;;;;10.48;1.30;;;;;;;;;;5054613;28;20059;-68
2023/03/30 10:06:01;;;;;;;8.68;2.03;;;;;;;;;;5063908;28;20043;-68
2023/03/30 10:08:27;;;;;;;12.82;1.38;;;;;;;;;;5058605;28;20067;-68
2023/03/30 10:10:53;;;;;;;6.60;1.10;;;;;;;;;;5062727;28;20052;-68
2023/03/30 10:13:20;;;;;;;0.85;0.40;;;;;;;;;;5057529;28;20024;-68
2023/03/30 10:15:47;;;;;;;6.80;1.13;;;;;;;;;;5060802;28;20024;-68
2023/03/30 10:18:33;;;;;;;9.52;1.15;;;;;;;;;;5060497;28;20025;-69
2023/03/30 10:21:16;;;;;;;5.32;1.15;;;;;;;;;;5065543;28;20032;-68
2023/03/30 10:23:43;;;;;;;9.68;2.05;;;;;;;;;;5060415;28;20033;-68
2023/03/30 10:26:19;;;;;;;10.70;1.23;;;;;;;;;;5055503;28;20028;-68
2023/03/30 10:29:03;;;;;;;12.55;1.95;;;;;;;;;;5053968;28;20025;-68
2023/03/30 10:31:28;;;;;;;11.85;1.25;;;;;;;;;;5043479;28;20024;-68
2023/03/30 10:33:55;;;;;;;4.00;0.70;;;;;;;;;;5044638;28;20070;-68
2023/03/30 10:36:21;;;;;;;6.63;1.42;;;;;;;;;;5058764;28;20031;-68
2023/03/30 10:38:47;;;;;;;2.13;0.60;;;;;;;;;;5064518;28;20100;-69
2023/03/30 10:41:19;;;;;;;3.45;0.98;;;;;;;;;;5044941;28;20438;-68
2023/03/30 10:43:45;;;;;;;4.75;0.77;;;;;;;;;;5044238;28;20031;-68
2023/03/30 10:46:13;;;;;;;1.95;0.75;;;;;;;;;;5047333;28;20032;-68
2023/03/30 10:48:57;;;;;;;3.40;0.95;;;;;;;;;;5043910;28;20032;-68
2023/03/30 10:51:31;;;;;;;2.35;0.47;;;;;;;;;;5043259;28;20028;-68
2023/03/30 10:54:02;;;;;;;9.10;1.25;;;;;;;;;;5046771;28;20024;-68
2023/03/30 10:56:27;;;;;;;7.60;0.88;;;;;;;;;;5045092;28;20070;-68
2023/03/30 10:59:06;;;;;;;1.17;0.40;;;;;;;;;;5042829;28;20028;-68
2023/03/30 11:01:48;;;;;;;6.57;1.00;;;;;;;;;;5045001;28;20054;-68
2023/03/30 11:04:17;;;;;;;1.05;0.57;;;;;;;;;;5044453;28;20126;-68
2023/03/30 11:06:43;;;;;;;2.90;0.77;;;;;;;;;;5043885;28;20979;-68
2023/03/30 11:09:13;;;;;;;6.25;0.60;;;;;;;;;;5047285;28;20021;-69
2023/03/30 11:11:39;;;;;;;4.32;1.00;;;;;;;;;;5048157;28;20485;-68
2023/03/30 11:14:07;;;;;;;3.22;0.98;;;;;;;;;;5049383;28;20059;-68
2023/03/30 11:16:35;;;;;;;6.68;1.27;;;;;;;;;;5052971;28;20553;-68
2023/03/30 11:19:19;;;;;;;3.05;0.85;;;;;;;;;;5045270;28;20490;-69
2023/03/30 11:21:59;;;;;;;9.68;1.30;;;;;;;;;;5047672;28;20020;-68
2023/03/30 11:24:28;;;;;;;2.17;0.38;;;;;;;;;;5050764;28;20017;-68
2023/03/30 11:26:59;;;;;;;10.30;1.30;;;;;;;;;;5047013;28;20039;-68
2023/03/30 11:29:25;;;;;;;5.72;1.00;;;;;;;;;;5047310;28;20029;-68
2023/03/30 11:32:13;;;;;;;7.32;0.93;;;;;;;;;;5047904;28;20367;-68
2023/03/30 11:35:00;;;;;;;6.57;1.27;;;;;;;;;;5047470;28;20024;-68
2023/03/30 11:37:34;;;;;;;8.68;1.73;;;;;;;;;;5046724;28;20529;-68
2023/03/30 11:40:16;;;;;;;3.95;1.48;;;;;;;;;;5045532;28;20059;-68
2023/03/30 11:42:42;;;;;;;7.03;1.33;;;;;;;;;;5047712;28;20024;-68
2023/03/30 11:45:16;;;;;;;9.23;1.88;;;;;;;;;;5049078;28;20025;-68
2023/03/30 11:47:47;;;;;;;9.93;3.03;;;;;;;;;;5047133;28;20044;-68
2023/03/30 11:50:22;;;;;;;8.43;2.30;;;;;;;;;;5046053;28;20137;-68
2023/03/30 11:52:47;;;;;;;6.35;1.30;;;;;;;;;;5048371;28;20039;-68
2023/03/30 11:55:22;;;;;;;13.20;2.27;;;;;;;;;;5047766;28;20135;-68
2023/03/30 11:57:59;;;;;;;3.38;1.00;;;;;;;;;;5045899;28;20337;-67
2023/03/30 12:00:37;;;;;;;10.05;1.60;;;;;;;;;;5049652;28;20056;-68
2023/03/30 12:03:14;;;;;;;7.70;1.17;;;;;;;;;;5046291;28;20023;-68
2023/03/30 12:05:49;;;;;;;10.40;2.22;;;;;;;;;;5045955;28;20086;-68
2023/03/30 12:08:33;;;;;;;12.30;1.38;;;;;;;;;;5044318;28;20052;-68
2023/03/30 12:11:03;;;;;;;4.55;0.70;;;;;;;;;;5047347;28;20025;-68
2023/03/30 12:13:29;;;;;;;6.38;1.27;;;;;;;;;;5045283;28;20060;-68
2023/03/30 12:16:01;;;;;;;15.32;2.03;;;;;;;;;;5048961;28;20103;-68
2023/03/30 12:18:35;;;;;;;7.30;1.48;;;;;;;;;;5049458;28;20035;-68
2023/03/30 12:21:08;;;;;;;9.30;1.77;;;;;;;;;;5048444;28;20435;-68
2023/03/30 12:23:49;;;;;;;4.20;0.98;;;;;;;;;;5045503;28;20562;-68
2023/03/30 12:26:23;;;;;;;6.82;1.58;;;;;;;;;;5047341;28;20039;-68
2023/03/30 12:28:49;;;;;;;5.88;1.00;;;;;;;;;;5044950;28;20734;-68
2023/03/30 12:31:14;;;;;;;3.22;0.38;;;;;;;;;;5047154;28;20025;-68
2023/03/30 12:33:46;;;;;;;3.85;1.05;;;;;;;;;;5047044;28;20013;-68
2023/03/30 12:36:26;;;;;;;3.47;1.05;;;;;;;;;;5052484;28;20028;-68
2023/03/30 12:39:00;;;;;;;9.85;1.70;;;;;;;;;;5051585;28;20388;-68
2023/03/30 12:41:26;;;;;;;5.10;1.30;;;;;;;;;;5060617;28;20103;-68
2023/03/30 12:44:02;;;;;;;7.80;1.80;;;;;;;;;;5049798;28;20074;-68
2023/03/30 12:46:40;;;;;;;6.75;1.67;;;;;;;;;;5058768;28;20021;-68
2023/03/30 12:49:06;;;;;;;7.15;1.52;;;;;;;;;;5050931;28;20025;-68
2023/03/30 12:51:34;;;;;;;4.82;1.50;;;;;;;;;;5051091;28;20089;-68
2023/03/30 12:54:25;;;;;;;15.98;1.83;;;;;;;;;;5049276;28;20021;-68
2023/03/30 12:56:53;;;;;;;13.88;1.90;;;;;;;;;;5042388;28;20061;-68
2023/03/30 12:59:19;;;;;;;11.27;2.08;;;;;;;;;;5052459;28;20098;-68
2023/03/30 13:01:44;;;;;;;12.13;2.20;;;;;;;;;;5056015;28;20845;-68
2023/03/30 13:04:13;;;;;;;12.55;2.65;;;;;;;;;;5048473;28;20370;-67
2023/03/30 13:06:55;;;;;;;14.32;2.92;;;;;;;;;;5047424;28;20373;-68
2023/03/30 13:09:26;;;;;;;11.43;3.25;;;;;;;;;;5059183;28;20095;-69
2023/03/30 13:11:52;;;;;;;14.48;3.10;;;;;;;;;;5062751;28;20020;-68
2023/03/30 13:14:26;;;;;;;22.63;5.18;;;;;;;;;;5066847;28;20009;-68
2023/03/30 13:16:51;;;;;;;13.95;3.92;;;;;;;;;;5064154;28;20447;-68
2023/03/30 13:19:32;;;;;;;10.88;2.17;;;;;;;;;;5066589;28;20107;-68
2023/03/30 13:21:57;;;;;;;;;;;;;;;;;;5058351;28;20051;-68
2023/03/30 13:24:34;;;;;;;15.13;3.77;;;;;;;;;;5060913;28;19959;-68
2023/03/30 13:27:18;;;;;;;12.73;3.45;;;;;;;;;;5051927;28;20278;-68
2023/03/30 13:30:02;;;;;;;13.93;2.33;;;;;;;;;;5054553;28;20038;-68
2023/03/30 13:32:33;;;;;;;14.68;1.85;;;;;;;;;;5053977;28;20028;-68
2023/03/30 13:35:02;;;;;;;10.32;2.15;;;;;;;;;;5062329;28;20382;-69
2023/03/30 13:37:40;;;;;;;9.38;1.85;;;;;;;;;;5063771;28;20017;-68
2023/03/30 13:40:06;;;;;;;7.18;2.47;;;;;;;;;;5060001;28;20048;-68
2023/03/30 13:42:36;;;;;;;6.82;1.55;;;;;;;;;;5055179;28;20024;-68
2023/03/30 13:45:07;;;;;;;12.10;1.70;;;;;;;;;;5053067;28;20021;-68
2023/03/30 13:47:51;;;;;;;9.65;1.27;;;;;;;;;;5056287;28;20062;-68
2023/03/30 13:50:17;;;;;;;5.70;1.50;;;;;;;;;;5061410;28;20021;-68
2023/03/30 13:52:44;;;;;;;4.93;1.25;;;;;;;;;;5055819;28;20017;-68
2023/03/30 13:55:14;;;;;;;3.35;0.75;;;;;;;;;;5064145;28;20074;-68
2023/03/30 13:57:40;;;;;;;8.63;2.17;;;;;;;;;;5053880;28;20100;-68
2023/03/30 14:00:06;;;;;;;10.18;1.25;;;;;;;;;;5059560;28;20088;-68
2023/03/30 14:02:32;;;;;;;2.83;0.80;;;;;;;;;;5054462;28;20016;-68
2023/03/30 14:05:19;;;;;;;3.83;1.13;;;;;;;;;;5057234;28;20414;-68
2023/03/30 14:07:46;;;;;;;6.50;0.95;;;;;;;;;;5052838;28;20013;-68
2023/03/30 14:10:13;;;;;;;3.58;0.80;;;;;;;;;;5053943;28;20024;-68
2023/03/30 14:12:39;;;;;;;7.15;2.05;;;;;;;;;;5056200;28;20081;-68
2023/03/30 14:15:18;;;;;;;4.13;0.98;;;;;;;;;;5061086;28;20020;-67
2023/03/30 14:18:03;;;;;;;5.28;0.95;;;;;;;;;;5059822;28;20013;-68
2023/03/30 14:20:43;;;;;;;5.28;1.00;;;;;;;;;;5059052;28;20107;-68
2023/03/30 14:23:13;;;;;;;2.10;0.65;;;;;;;;;;5057183;28;20036;-68
2023/03/30 14:25:39;;;;;;;;;;;;;;;;;;5065212;28;20063;-68
2023/03/30 14:28:11;;;;;;;8.30;1.45;;;;;;;;;;5061197;28;19956;-68
2023/03/30 14:30:36;;;;;;;12.20;2.17;;;;;;;;;;5064124;28;20042;-68
2023/03/30 14:33:05;;;;;;;4.60;1.15;;;;;;;;;;5055184;28;20385;-68
2023/03/30 14:35:30;;;;;;;9.90;1.65;;;;;;;;;;5062848;28;20045;-68
2023/03/30 14:37:55;;;;;;;12.57;1.48;;;;;;;;;;5065590;28;20501;-70
2023/03/30 14:40:22;;;;;;;13.83;1.83;;;;;;;;;;5058109;28;20386;-70
2023/03/30 14:42:47;;;;;;;15.05;1.92;;;;;;;;;;5063258;28;20324;-70
2023/03/30 14:45:16;;;;;;;19.58;2.40;;;;;;;;;;5069152;28;20028;-70
2023/03/30 14:47:42;;;;;;;8.10;1.67;;;;;;;;;;5058532;28;20013;-70